메인 페이지
METAR-TAF:

METAR-TAF

공항 :

비라코푸스 캄피나스 국제공항

캄피나스, 상파울루, 브라질

위도: 23-00S, 경도: 047-08W, 고도: 661m

현재 날씨관측

예보는 31분 전, 21:00시(UTC)에 발표되었습니다.
남동12kt
온도 23°C
습도 33%
기압 1024 hPa
시정: 8000m

METAR: SBKP 062100Z 14012KT 8000 NSC 23/06 Q1024

시각: 18:31 (21:31 UTC)

예보

예보는 5 시간 18분 전, 16:13시(UTC)에 발표되었습니다.
예보 대상 시간: 06일 18시부터 07일 18시까지 (UTC)
남동8kt
시정 10km 이상
1500m 미만 상공 구름 및 적란운 없음
확률 30%
06일 18시부터 06일 20시까지 (UTC)
북북서7kt
확률 30%
07일 08시부터 07일 11시까지 (UTC)
5kt
시정: 7000m
전환 중
07일 11시부터 07일 13시까지 (UTC)
북동5kt
확률 30%
07일 14시부터 07일 18시까지 (UTC)
북북서7kt

TAF: SBKP 061613Z 0618/0718 13008KT CAVOK TN12/0710Z TX27/0717Z PROB30 0618/0620 33007KT PROB30 0708/0711 10005KT 7000 NSC BECMG 0711/0713 05005KT PROB30 0714/0718 34007KT RMK PGO

4,000개 이상의 공항 관측 자료 및 예보 (METAR 및 TAF 보고).

지도상에서 검색 가능한 기상관측소가 노란 점과 빨간 점으로 표시되어 있습니다.

기상관측소 명을 보려면 표시 위로 마우스를 이동하세요.

날씨 관측과 예보를 보려면 클릭하세요.

지도 변경 : 확대하려면 엑스 표시가 있는 녹색 버튼, 축소하려면 빼기 표시가 있는 녹색 버튼, 다음 페이지의 지도를 보려면 녹색 화살표를 클릭하세요.


METAR-TAF: